Погода Портервилльна неделю

Калифорния, США

01 - 07 сентября
  • 01сентября
    Сегодня
    +11°
    +30°
    Ясно и безоблачно
    ВремяПогодаТемператураВлажностьДавлениеВетер, м/сВероятность осадков
    02:00Практически безоблачно+20°C62 %747 мм1.9 м/с2 %
    05:00Ясно и безоблачно+16°C79 %748 мм2.4 м/с2 %
    08:00Ясно и безоблачно+15°C72 %749 мм1.9 м/с2 %
    11:00Ясно и безоблачно+22°C49 %749 мм2.8 м/с2 %
    14:00Ясно и безоблачно+28°C31 %748 мм3.3 м/с2 %
    17:00Ясно и безоблачно+29°C27 %746 мм3.9 м/с2 %
    20:00Ясно и безоблачно+23°C39 %747 мм2.1 м/с2 %
    23:00Ясно и безоблачно+18°C52 %749 мм2.1 м/с2 %
  • 02сентября
    Среда
    +13°
    +29°
    Ясно и безоблачно
    ВремяПогодаТемператураВлажностьДавлениеВетер, м/сВероятность осадков
    02:00Ясно и безоблачно+14°C70 %749 мм1.6 м/с2 %
    05:00Ясно и безоблачно+12°C82 %750 мм2.4 м/с2 %
    08:00Ясно и безоблачно+15°C70 %750 мм2.1 м/с2 %
    11:00Ясно и безоблачно+21°C47 %751 мм2.8 м/с2 %
    14:00Ясно и безоблачно+27°C32 %749 мм3.4 м/с2 %
    17:00Ясно и безоблачно+28°C30 %748 мм3.6 м/с2 %
    20:00Ясно и безоблачно+22°C43 %747 мм1.5 м/с2 %
    23:00Ясно и безоблачно+18°C56 %748 мм1.6 м/с2 %
  • 03сентября
    Четверг
    +14°
    +30°
    Ясно и безоблачно
    ВремяПогодаТемператураВлажностьДавлениеВетер, м/сВероятность осадков
    02:00Ясно и безоблачно+15°C70 %748 мм1.7 м/с2 %
    05:00Ясно и безоблачно+13°C84 %748 мм2.2 м/с2 %
    08:00Ясно и безоблачно+16°C74 %749 мм2.2 м/с2 %
    11:00Ясно и безоблачно+23°C49 %749 мм2.9 м/с2 %
    14:00Ясно и безоблачно+28°C32 %747 мм3.5 м/с2 %
    17:00Ясно и безоблачно+30°C31 %745 мм3.6 м/с2 %
    20:00Ясно и безоблачно+24°C47 %744 мм1.4 м/с2 %
    23:00Ясно и безоблачно+20°C57 %745 мм2.0 м/с2 %
  • 04сентября
    Пятница
    +14°
    +30°
    Ясно и безоблачно
    ВремяПогодаТемператураВлажностьДавлениеВетер, м/сВероятность осадков
    02:00Ясно и безоблачно+16°C80 %746 мм1.7 м/с2 %
    05:00Ясно и безоблачно+14°C91 %746 мм2.5 м/с2 %
    08:00Ясно и безоблачно+16°C78 %747 мм2.2 м/с2 %
    11:00Ясно и безоблачно+23°C53 %748 мм3.0 м/с2 %
    14:00Ясно и безоблачно+28°C36 %746 мм3.5 м/с2 %
    17:00Ясно и безоблачно+30°C33 %745 мм3.6 м/с2 %
    20:00Ясно и безоблачно+25°C52 %745 мм1.5 м/с2 %
    23:00Ясно и безоблачно+20°C60 %746 мм2.0 м/с2 %
  • 05сентября
    Суббота
    +15°
    +32°
    Ясно и безоблачно
    ВремяПогодаТемператураВлажностьДавлениеВетер, м/сВероятность осадков
    02:00Ясно и безоблачно+17°C68 %747 мм1.8 м/с2 %
    05:00Ясно и безоблачно+14°C73 %747 мм2.2 м/с2 %
    08:00Ясно и безоблачно+17°C62 %749 мм2.0 м/с2 %
    11:00Ясно и безоблачно+24°C43 %748 мм2.7 м/с2 %
    14:00Ясно и безоблачно+30°C30 %747 мм3.4 м/с8 %
    17:00Ясно и безоблачно+31°C29 %746 мм3.5 м/с6 %
    20:00Ясно и безоблачно+25°C41 %746 мм2.0 м/с8 %
    23:00Ясно и безоблачно+20°C55 %748 мм1.7 м/с7 %
  • 06сентября
    Воскресенье
    +17°
    +32°
    Ясно и безоблачно
    ВремяПогодаТемператураВлажностьДавлениеВетер, м/сВероятность осадков
    05:00Ясно и безоблачно+16°C70 %747 мм2.4 м/с21 %
    11:00Ясно и безоблачно+25°C38 %748 мм2.7 м/с33 %
    17:00Ясно и безоблачно+31°C25 %745 мм4.0 м/с31 %
    23:00Ясно и безоблачно+24°C36 %747 мм1.6 м/с26 %
  • 07сентября
    Понедельник
    +18°
    +32°
    Ясно и безоблачно
    ВремяПогодаТемператураВлажностьДавлениеВетер, м/сВероятность осадков
    05:00Ясно и безоблачно+18°C57 %748 мм1.4 м/с19 %
    11:00Ясно и безоблачно+25°C34 %749 мм1.6 м/с24 %
    17:00Ясно и безоблачно+31°C21 %746 мм2.2 м/с17 %
    23:00Ясно и безоблачно+23°C37 %747 мм1.6 м/с11 %
Мы используем cookies
Соглашаюсь